createdAt,value
2019-05-18T00:04:28.007Z,73.49
2019-05-18T00:09:49.541Z,73.00
2019-05-18T00:15:13.431Z,73.33
2019-05-18T00:20:35.170Z,73.68
2019-05-18T00:25:57.144Z,74.03
2019-05-18T00:31:18.418Z,73.84
2019-05-18T00:36:40.455Z,74.12
2019-05-18T00:42:01.943Z,74.18
2019-05-18T00:47:23.636Z,74.78
2019-05-18T00:52:45.334Z,74.66
2019-05-18T00:58:07.165Z,74.50
2019-05-18T01:03:28.795Z,74.07
2019-05-18T01:08:50.329Z,73.87
2019-05-18T01:14:12.096Z,73.47
2019-05-18T01:19:33.736Z,73.29
2019-05-18T01:24:55.189Z,72.96
2019-05-18T01:30:17.450Z,72.66
2019-05-18T01:35:39.117Z,72.73
2019-05-18T01:41:00.814Z,72.77
2019-05-18T01:46:22.401Z,72.19
2019-05-18T01:51:43.914Z,71.74
2019-05-18T01:57:06.484Z,71.61
2019-05-18T02:02:28.525Z,71.81
2019-05-18T02:07:50.156Z,72.26
2019-05-18T02:13:11.697Z,72.37
2019-05-18T02:18:33.309Z,72.58
2019-05-18T02:23:55.086Z,72.57
2019-05-18T02:29:16.909Z,72.40
2019-05-18T02:34:38.664Z,72.47
2019-05-18T02:40:00.632Z,72.41
2019-05-18T02:45:22.055Z,72.48
2019-05-18T02:50:43.701Z,72.66
2019-05-18T02:56:05.532Z,73.01
2019-05-18T03:01:27.294Z,73.16
2019-05-18T03:06:48.978Z,72.74
2019-05-18T03:12:10.535Z,72.24
2019-05-18T03:17:32.189Z,70.01
2019-05-18T03:22:53.671Z,68.62
2019-05-18T03:28:15.352Z,68.35
2019-05-18T03:33:37.067Z,69.35
2019-05-18T03:38:59.014Z,67.76
2019-05-18T03:44:20.846Z,66.28
2019-05-18T03:49:42.483Z,65.56
2019-05-18T03:55:05.106Z,64.79
2019-05-18T04:00:27.624Z,61.89
2019-05-18T04:05:49.443Z,61.37
2019-05-18T04:11:11.424Z,61.37
2019-05-18T04:16:32.860Z,62.20
2019-05-18T04:21:54.431Z,64.33
2019-05-18T04:27:15.905Z,65.80
2019-05-18T04:32:37.218Z,67.42
2019-05-18T04:37:59.193Z,67.42
2019-05-18T04:43:20.642Z,67.76
2019-05-18T04:48:42.494Z,68.40
2019-05-18T04:54:04.308Z,68.71
2019-05-18T04:59:25.871Z,68.63
2019-05-18T05:04:51.399Z,68.82
2019-05-18T05:10:11.426Z,68.24
2019-05-18T05:15:33.251Z,68.89
2019-05-18T05:20:54.601Z,69.10
2019-05-18T05:26:16.443Z,68.50
2019-05-18T05:31:38.065Z,68.67
2019-05-18T05:36:59.593Z,66.47
2019-05-18T05:42:21.460Z,67.18
2019-05-18T05:47:43.357Z,66.20
2019-05-18T05:53:04.956Z,66.03
2019-05-18T05:58:26.880Z,65.30
2019-05-18T06:03:48.771Z,64.98
2019-05-18T06:09:10.609Z,64.97
2019-05-18T06:14:32.149Z,64.10
2019-05-18T06:19:53.750Z,63.21
2019-05-18T06:25:15.641Z,62.78
2019-05-18T06:30:37.492Z,60.82
2019-05-18T06:35:59.324Z,61.50
2019-05-18T06:41:21.271Z,60.14
2019-05-18T06:46:43.136Z,60.76
2019-05-18T06:52:04.767Z,61.62
2019-05-18T06:57:27.791Z,62.09
2019-05-18T07:02:49.895Z,62.01
2019-05-18T07:08:11.680Z,62.22
2019-05-18T07:13:36.429Z,60.91
2019-05-18T07:18:59.125Z,61.18
2019-05-18T07:24:20.921Z,61.48
2019-05-18T07:29:42.476Z,60.45
2019-05-18T07:35:04.306Z,60.32
2019-05-18T07:40:26.293Z,60.06
2019-05-18T07:45:48.063Z,59.53
2019-05-18T07:51:09.811Z,59.41
2019-05-18T07:56:31.626Z,59.22
2019-05-18T08:01:53.555Z,58.98
2019-05-18T08:07:15.532Z,58.63
2019-05-18T08:12:37.169Z,58.27
2019-05-18T08:17:58.611Z,57.79
2019-05-18T08:23:20.545Z,57.75
2019-05-18T08:28:42.079Z,58.09
2019-05-18T08:34:04.027Z,57.46
2019-05-18T08:39:25.851Z,56.02
2019-05-18T08:44:47.019Z,54.82
2019-05-18T08:50:09.403Z,53.47
2019-05-18T08:55:31.461Z,53.55
2019-05-18T09:00:53.450Z,52.85
2019-05-18T09:06:15.632Z,52.84
2019-05-18T09:11:37.188Z,51.63
2019-05-18T09:16:59.188Z,51.07
2019-05-18T09:22:23.146Z,50.68
2019-05-18T09:27:44.487Z,49.23
2019-05-18T09:33:06.120Z,48.25
2019-05-18T09:38:28.017Z,48.19
2019-05-18T09:43:49.704Z,48.61
2019-05-18T09:49:11.554Z,48.60
2019-05-18T09:54:32.989Z,48.32
2019-05-18T09:59:55.026Z,45.30
2019-05-18T10:05:17.014Z,48.20
2019-05-18T10:10:37.839Z,47.78
2019-05-18T10:15:59.489Z,46.88
2019-05-18T10:21:22.149Z,48.98
2019-05-18T10:26:43.977Z,48.27
2019-05-18T10:32:05.873Z,50.86
2019-05-18T10:37:27.440Z,48.90
2019-05-18T10:42:49.055Z,48.46
2019-05-18T10:48:11.066Z,47.02
2019-05-18T10:53:32.475Z,47.16
2019-05-18T10:58:54.348Z,47.44
2019-05-18T11:04:16.394Z,47.90
2019-05-18T11:09:38.144Z,48.02
2019-05-18T11:14:59.906Z,45.87
2019-05-18T11:20:21.767Z,45.71
2019-05-18T11:25:43.272Z,45.47
2019-05-18T11:31:04.844Z,46.30
2019-05-18T11:36:26.607Z,45.24
2019-05-18T11:41:48.056Z,44.32
2019-05-18T11:47:09.634Z,44.05
2019-05-18T11:52:31.564Z,44.33
2019-05-18T11:57:53.220Z,45.71
2019-05-18T12:03:14.512Z,44.18
2019-05-18T12:08:36.404Z,43.08
2019-05-18T12:14:06.156Z,41.07
2019-05-18T12:19:28.051Z,41.88
2019-05-18T12:24:50.170Z,43.75
2019-05-18T12:30:12.662Z,44.74
2019-05-18T12:35:34.325Z,45.52
2019-05-18T12:40:55.968Z,43.12
2019-05-18T12:46:17.713Z,42.80
2019-05-18T12:51:39.176Z,39.82
2019-05-18T12:57:00.549Z,35.44
2019-05-18T13:02:22.109Z,35.63
2019-05-18T13:07:43.736Z,33.61
2019-05-18T13:13:05.422Z,33.15
2019-05-18T13:18:26.855Z,33.80
2019-05-18T13:23:48.705Z,33.50
2019-05-18T13:29:10.641Z,33.86
2019-05-18T13:34:32.301Z,34.01
2019-05-18T13:39:54.445Z,35.90
2019-05-18T13:45:16.636Z,33.65
2019-05-18T13:50:38.380Z,35.57
2019-05-18T13:56:01.531Z,34.57
2019-05-18T14:01:23.174Z,37.46
2019-05-18T14:06:45.022Z,39.82
2019-05-18T14:12:06.646Z,42.41
2019-05-18T14:17:28.431Z,41.83
2019-05-18T14:22:50.170Z,40.27
2019-05-18T14:28:11.859Z,39.76
2019-05-18T14:33:33.882Z,40.84
2019-05-18T14:38:56.847Z,41.58
2019-05-18T14:44:18.974Z,43.64
2019-05-18T14:49:40.748Z,44.76
2019-05-18T14:55:02.358Z,44.36
2019-05-18T15:00:24.317Z,42.25
2019-05-18T15:05:46.665Z,39.19
2019-05-18T15:11:08.419Z,38.52
2019-05-18T15:16:30.256Z,39.01
2019-05-18T15:21:51.811Z,38.81
2019-05-18T15:27:13.636Z,38.16
2019-05-18T15:32:35.389Z,42.49
2019-05-18T15:37:57.052Z,46.78
2019-05-18T15:43:18.974Z,49.47
2019-05-18T15:48:40.941Z,47.76
2019-05-18T15:54:02.729Z,45.48
2019-05-18T15:59:24.538Z,45.24
2019-05-18T16:04:46.169Z,46.94
2019-05-18T16:10:09.049Z,46.77
2019-05-18T16:15:30.870Z,47.31
2019-05-18T16:20:57.443Z,47.64
2019-05-18T16:26:21.920Z,48.49
2019-05-18T16:31:43.243Z,49.08
2019-05-18T16:37:04.949Z,52.29
2019-05-18T16:42:26.689Z,54.51
2019-05-18T16:48:08.913Z,56.98
2019-05-18T16:53:30.548Z,58.22
2019-05-18T16:58:52.380Z,60.88
2019-05-18T17:04:14.044Z,61.49
2019-05-18T17:09:35.541Z,64.52
2019-05-18T17:14:57.305Z,66.84
2019-05-18T17:20:19.600Z,68.00
2019-05-18T17:25:41.104Z,68.47
2019-05-18T17:31:03.136Z,68.98
2019-05-18T17:36:24.701Z,70.42
2019-05-18T17:41:46.218Z,71.06
2019-05-18T17:47:07.878Z,72.32
2019-05-18T17:52:29.685Z,73.79
2019-05-18T17:57:51.587Z,72.72
2019-05-18T18:03:13.227Z,72.21
2019-05-18T18:08:35.416Z,71.59
2019-05-18T18:13:57.968Z,72.16
2019-05-18T18:19:19.764Z,73.22
2019-05-18T18:24:41.330Z,73.50
2019-05-18T18:30:03.394Z,73.28
2019-05-18T18:35:25.014Z,73.22
2019-05-18T18:40:46.796Z,73.17
2019-05-18T18:46:09.065Z,73.40
2019-05-18T18:51:30.933Z,73.94
2019-05-18T18:56:52.886Z,74.32
2019-05-18T19:02:14.400Z,74.81
2019-05-18T19:07:36.925Z,75.28
2019-05-18T19:12:58.606Z,75.64
2019-05-18T19:18:19.963Z,75.49
2019-05-18T19:23:41.806Z,75.86
2019-05-18T19:29:05.311Z,75.99
2019-05-18T19:34:26.719Z,76.16
2019-05-18T19:39:48.627Z,76.85
2019-05-18T19:45:10.843Z,76.96
2019-05-18T19:50:32.458Z,77.07
2019-05-18T19:55:54.155Z,77.64
2019-05-18T20:01:15.824Z,77.66
2019-05-18T20:06:37.760Z,77.66
2019-05-18T20:11:59.633Z,78.34
2019-05-18T20:17:21.440Z,78.52
2019-05-18T20:22:43.206Z,77.20
2019-05-18T20:28:05.135Z,76.77
2019-05-18T20:33:27.038Z,76.77
2019-05-18T20:38:49.015Z,77.90
2019-05-18T20:44:10.564Z,78.90
2019-05-18T20:49:32.228Z,79.26
2019-05-18T20:54:54.189Z,78.90
2019-05-18T21:00:16.022Z,78.90
2019-05-18T21:05:37.753Z,78.84
2019-05-18T21:10:59.298Z,79.03
2019-05-18T21:16:21.249Z,78.62
2019-05-18T21:21:43.085Z,78.12
2019-05-18T21:27:04.614Z,77.91
2019-05-18T21:32:26.152Z,78.34
2019-05-18T21:37:47.926Z,77.49
2019-05-18T21:43:09.980Z,77.80
2019-05-18T21:48:31.868Z,78.35
2019-05-18T21:53:53.426Z,78.69
2019-05-18T21:59:15.439Z,78.48
2019-05-18T22:04:37.056Z,77.91
2019-05-18T22:09:58.594Z,77.40
2019-05-18T22:15:20.701Z,77.71
2019-05-18T22:20:44.256Z,77.71
2019-05-18T22:26:06.522Z,77.46
2019-05-18T22:31:28.043Z,78.22
2019-05-18T22:36:49.575Z,78.67
2019-05-18T22:42:11.252Z,78.17
2019-05-18T22:47:32.914Z,78.47
2019-05-18T22:52:54.717Z,78.25
2019-05-18T22:58:16.569Z,77.98
2019-05-18T23:03:38.317Z,77.69
2019-05-18T23:08:59.760Z,77.64
2019-05-18T23:14:21.671Z,77.18
2019-05-18T23:19:43.253Z,77.17
2019-05-18T23:25:05.433Z,77.30
2019-05-18T23:30:26.911Z,77.35
2019-05-18T23:35:48.624Z,78.04
2019-05-18T23:41:10.394Z,79.30
2019-05-18T23:46:31.937Z,79.68
2019-05-18T23:51:53.465Z,79.75
2019-05-18T23:57:15.216Z,79.91
